createdAt,value
2019-01-16T00:00:29.563Z,0.00
2019-01-16T00:01:28.074Z,0.00
2019-01-16T00:02:26.404Z,0.00
2019-01-16T00:03:26.643Z,0.00
2019-01-16T00:04:29.024Z,0.00
2019-01-16T00:05:26.980Z,0.00
2019-01-16T00:06:35.077Z,0.00
2019-01-16T00:07:27.431Z,0.00
2019-01-16T00:08:29.070Z,0.00
2019-01-16T00:09:27.646Z,0.00
2019-01-16T00:10:29.563Z,0.00
2019-01-16T00:11:28.062Z,0.00
2019-01-16T00:12:29.947Z,0.00
2019-01-16T00:13:30.059Z,0.00
2019-01-16T00:14:32.086Z,0.00
2019-01-16T00:15:28.614Z,0.00
2019-01-16T00:16:28.758Z,0.00
2019-01-16T00:17:36.555Z,0.00
2019-01-16T00:18:36.067Z,0.00
2019-01-16T00:19:31.070Z,0.00
2019-01-16T00:20:30.514Z,0.00
2019-01-16T00:21:32.607Z,0.00
2019-01-16T00:22:30.810Z,0.00
2019-01-16T00:23:33.565Z,0.00
2019-01-16T00:24:30.188Z,0.00
2019-01-16T00:25:30.356Z,0.00
2019-01-16T00:26:53.081Z,0.00
2019-01-16T00:27:45.573Z,0.00
2019-01-16T00:28:33.516Z,0.00
2019-01-16T00:29:31.150Z,0.00
2019-01-16T00:30:32.330Z,0.00
2019-01-16T00:31:33.075Z,0.00
2019-01-16T00:32:39.563Z,0.00
2019-01-16T00:33:31.890Z,0.00
2019-01-16T00:34:35.115Z,0.00
2019-01-16T00:35:34.104Z,0.00
2019-01-16T00:36:36.062Z,0.00
2019-01-16T00:37:33.652Z,0.00
2019-01-16T00:38:39.529Z,0.00
2019-01-16T00:39:36.564Z,0.00
2019-01-16T00:40:33.138Z,0.00
2019-01-16T00:41:33.414Z,0.00
2019-01-16T00:42:34.861Z,0.00
2019-01-16T00:43:35.580Z,0.00
2019-01-16T00:44:37.566Z,0.00
2019-01-16T00:45:38.059Z,0.00
2019-01-16T00:46:34.307Z,0.00
2019-01-16T00:47:38.070Z,0.00
2019-01-16T00:48:38.067Z,0.00
2019-01-16T00:49:34.641Z,0.00
2019-01-16T00:50:42.574Z,0.00
2019-01-16T00:51:38.573Z,0.00
2019-01-16T00:52:38.116Z,0.00
2019-01-16T00:53:35.336Z,0.00
2019-01-16T00:54:35.547Z,0.00
2019-01-16T00:55:37.622Z,0.00
2019-01-16T00:56:42.598Z,0.00
2019-01-16T00:57:39.605Z,0.00
2019-01-16T00:58:36.201Z,0.00
2019-01-16T00:59:40.067Z,0.00
2019-01-16T01:00:41.563Z,0.00
2019-01-16T01:01:36.783Z,0.00
2019-01-16T01:02:38.607Z,0.00
2019-01-16T01:03:41.069Z,0.00
2019-01-16T01:04:39.068Z,0.00
2019-01-16T01:05:37.402Z,0.00
2019-01-16T01:06:37.626Z,0.00
2019-01-16T01:07:41.585Z,0.00
2019-01-16T01:08:44.568Z,0.00
2019-01-16T01:09:39.301Z,0.00
2019-01-16T01:10:40.071Z,0.00
2019-01-16T01:11:38.525Z,0.00
2019-01-16T01:12:54.560Z,0.00
2019-01-16T01:13:40.600Z,0.00
2019-01-16T01:14:40.567Z,0.00
2019-01-16T01:15:40.274Z,0.00
2019-01-16T01:16:39.511Z,0.00
2019-01-16T01:17:39.594Z,0.00
2019-01-16T01:18:44.580Z,0.00
2019-01-16T01:19:39.913Z,0.00
2019-01-16T01:20:46.091Z,0.00
2019-01-16T01:21:40.283Z,0.00
2019-01-16T01:22:42.104Z,0.00
2019-01-16T01:23:40.662Z,0.00
2019-01-16T01:24:43.529Z,0.00
2019-01-16T01:25:40.989Z,0.00
2019-01-16T01:26:41.197Z,0.00
2019-01-16T01:27:45.065Z,0.00
2019-01-16T01:28:41.519Z,0.00
2019-01-16T01:29:43.580Z,0.00
2019-01-16T01:30:41.920Z,0.00
2019-01-16T01:31:42.124Z,0.00
2019-01-16T01:32:44.069Z,0.00
2019-01-16T01:33:44.069Z,0.00
2019-01-16T01:34:46.568Z,0.00
2019-01-16T01:35:44.574Z,0.00
2019-01-16T01:36:45.600Z,0.00
2019-01-16T01:37:46.591Z,0.00
2019-01-16T01:38:45.137Z,0.00
2019-01-16T01:39:47.064Z,0.00
2019-01-16T01:40:45.065Z,0.00
2019-01-16T01:41:44.533Z,0.00
2019-01-16T01:42:44.884Z,0.00
2019-01-16T01:43:44.087Z,0.00
2019-01-16T01:44:48.063Z,0.00
2019-01-16T01:45:44.527Z,0.00
2019-01-16T01:46:44.727Z,0.00
2019-01-16T01:47:48.565Z,0.00
2019-01-16T01:48:45.134Z,0.00
2019-01-16T01:49:47.095Z,0.00
2019-01-16T01:50:45.549Z,0.00
2019-01-16T01:51:45.756Z,0.00
2019-01-16T01:52:45.965Z,0.00
2019-01-16T01:53:50.099Z,0.00
2019-01-16T01:54:46.310Z,0.00
2019-01-16T01:56:08.521Z,0.00
2019-01-16T01:56:48.581Z,0.00
2019-01-16T01:57:49.594Z,0.00
2019-01-16T01:58:48.578Z,0.00
2019-01-16T01:59:51.115Z,0.00
2019-01-16T02:00:47.395Z,0.00
2019-01-16T02:01:47.627Z,0.00
2019-01-16T02:02:49.579Z,0.00
2019-01-16T02:03:51.564Z,0.00
2019-01-16T02:04:52.073Z,0.00
2019-01-16T02:05:48.283Z,0.00
2019-01-16T02:06:50.069Z,0.00
2019-01-16T02:07:50.562Z,0.00
2019-01-16T02:08:48.756Z,0.00
2019-01-16T02:09:50.051Z,0.00
2019-01-16T02:11:00.869Z,0.00
2019-01-16T02:11:49.264Z,0.00
2019-01-16T02:12:50.471Z,0.00
2019-01-16T02:14:05.566Z,0.00
2019-01-16T02:14:49.891Z,0.00
2019-01-16T02:15:51.606Z,0.00
2019-01-16T02:16:50.197Z,0.00
2019-01-16T02:17:54.110Z,0.00
2019-01-16T02:19:06.075Z,0.00
2019-01-16T02:19:50.671Z,0.00
2019-01-16T02:20:50.772Z,0.00
2019-01-16T02:21:56.625Z,0.00
2019-01-16T02:23:03.252Z,0.00
2019-01-16T02:23:51.442Z,0.00
2019-01-16T02:24:53.573Z,0.00
2019-01-16T02:25:53.596Z,0.00
2019-01-16T02:26:53.579Z,0.00
2019-01-16T02:27:52.155Z,0.00
2019-01-16T02:28:52.375Z,0.00
2019-01-16T02:29:52.576Z,0.00
2019-01-16T02:30:52.841Z,0.00
2019-01-16T02:31:54.566Z,0.00
2019-01-16T02:33:01.112Z,0.00
2019-01-16T02:33:53.369Z,0.00
2019-01-16T02:35:01.065Z,0.00
2019-01-16T02:35:57.604Z,0.00
2019-01-16T02:36:55.567Z,0.00
2019-01-16T02:37:55.592Z,0.00
2019-01-16T02:38:56.084Z,0.00
2019-01-16T02:39:57.065Z,0.00
2019-01-16T02:40:55.543Z,0.00
2019-01-16T02:41:56.610Z,0.00
2019-01-16T02:42:54.830Z,0.00
2019-01-16T02:43:58.585Z,0.00
2019-01-16T02:45:03.078Z,0.00
2019-01-16T02:45:57.069Z,0.00
2019-01-16T02:46:55.517Z,0.00
2019-01-16T02:47:56.719Z,0.00
2019-01-16T02:48:57.582Z,0.00
2019-01-16T02:50:00.240Z,0.00
2019-01-16T02:50:56.280Z,0.00
2019-01-16T02:51:58.118Z,0.00
2019-01-16T02:52:58.565Z,0.00
2019-01-16T02:53:56.765Z,0.00
2019-01-16T02:54:58.612Z,0.00
2019-01-16T02:56:02.036Z,0.00
2019-01-16T02:56:57.258Z,0.00
2019-01-16T02:57:59.070Z,0.00
2019-01-16T02:58:59.562Z,0.00
2019-01-16T03:00:03.596Z,0.00
2019-01-16T03:00:59.195Z,0.00
2019-01-16T03:01:59.604Z,0.00
2019-01-16T03:03:00.075Z,0.00
2019-01-16T03:03:58.403Z,0.00
2019-01-16T03:04:58.609Z,0.00
2019-01-16T03:06:06.564Z,0.00
2019-01-16T03:06:59.067Z,0.00
2019-01-16T03:08:01.084Z,0.00
2019-01-16T03:09:05.322Z,0.00
2019-01-16T03:10:01.119Z,0.00
2019-01-16T03:10:59.694Z,0.00
2019-01-16T03:12:01.565Z,0.00
2019-01-16T03:13:01.574Z,0.00
2019-01-16T03:14:00.157Z,0.00
2019-01-16T03:15:00.361Z,0.00
2019-01-16T03:16:04.064Z,0.00
2019-01-16T03:17:00.763Z,0.00
2019-01-16T03:18:02.584Z,0.00
2019-01-16T03:19:04.645Z,0.00
2019-01-16T03:20:02.412Z,0.00
2019-01-16T03:21:03.478Z,0.00
2019-01-16T03:22:03.569Z,0.00
2019-01-16T03:23:02.022Z,0.00
2019-01-16T03:24:04.080Z,0.00
2019-01-16T03:25:04.067Z,0.00
2019-01-16T03:26:03.654Z,0.00
2019-01-16T03:27:04.614Z,0.00
2019-01-16T03:28:04.563Z,0.00
2019-01-16T03:29:03.274Z,0.00
2019-01-16T03:30:06.023Z,0.00
2019-01-16T03:31:05.568Z,0.00
2019-01-16T03:32:05.585Z,0.00
2019-01-16T03:33:03.926Z,0.00
2019-01-16T03:34:04.137Z,0.00
2019-01-16T03:35:06.065Z,0.00
2019-01-16T03:36:04.521Z,0.00
2019-01-16T03:37:04.723Z,0.00
2019-01-16T03:38:04.936Z,0.00
2019-01-16T03:39:05.136Z,0.00
2019-01-16T03:40:05.347Z,0.00
2019-01-16T03:41:05.558Z,0.00
2019-01-16T03:42:07.603Z,0.00
2019-01-16T03:43:05.903Z,0.00
2019-01-16T03:44:06.098Z,0.00
2019-01-16T03:45:06.305Z,0.00
2019-01-16T03:46:23.024Z,0.00
2019-01-16T03:47:09.530Z,0.00
2019-01-16T03:48:06.904Z,0.00
2019-01-16T03:49:13.073Z,0.00
2019-01-16T03:50:07.236Z,0.00
2019-01-16T03:51:13.150Z,0.00
2019-01-16T03:52:09.061Z,0.00
2019-01-16T03:53:09.564Z,0.00
2019-01-16T03:54:09.612Z,0.00
2019-01-16T03:55:08.077Z,0.00
2019-01-16T03:56:31.068Z,0.00
2019-01-16T03:57:10.099Z,0.00
2019-01-16T03:58:08.718Z,0.00
2019-01-16T03:59:10.580Z,0.00
2019-01-16T04:00:10.058Z,0.00
2019-01-16T04:01:09.164Z,0.00
2019-01-16T04:02:13.110Z,0.00
2019-01-16T04:03:11.066Z,0.00
2019-01-16T04:04:12.595Z,0.00
2019-01-16T04:05:10.544Z,0.00
2019-01-16T04:06:12.070Z,0.00
2019-01-16T04:07:10.272Z,0.00
2019-01-16T04:08:15.027Z,0.00
2019-01-16T04:09:10.620Z,0.00
2019-01-16T04:10:12.567Z,0.00
2019-01-16T04:11:12.581Z,0.00
2019-01-16T04:12:12.510Z,0.00
2019-01-16T04:13:11.336Z,0.00
2019-01-16T04:14:14.139Z,0.00
2019-01-16T04:15:13.567Z,0.00
2019-01-16T04:16:15.566Z,0.00
2019-01-16T04:17:12.085Z,0.00
2019-01-16T04:18:12.194Z,0.00
2019-01-16T04:19:21.357Z,0.00
2019-01-16T04:20:20.073Z,0.00
2019-01-16T04:21:14.566Z,0.00
2019-01-16T04:22:14.565Z,0.00
2019-01-16T04:23:13.944Z,0.00
2019-01-16T04:24:14.570Z,0.00
2019-01-16T04:25:21.097Z,0.00
2019-01-16T04:26:15.071Z,0.00
2019-01-16T04:27:14.530Z,0.00
2019-01-16T04:28:21.602Z,0.00
2019-01-16T04:29:19.989Z,0.00
2019-01-16T04:30:18.087Z,0.00
2019-01-16T04:31:15.360Z,0.00
2019-01-16T04:32:16.069Z,0.00
2019-01-16T04:33:16.612Z,0.00
2019-01-16T04:34:16.613Z,0.00
2019-01-16T04:35:18.603Z,0.00
2019-01-16T04:36:15.272Z,0.00
2019-01-16T04:37:19.070Z,0.00
2019-01-16T04:38:17.573Z,0.00
2019-01-16T04:39:17.586Z,0.00
2019-01-16T04:40:15.926Z,0.00
2019-01-16T04:41:18.065Z,0.00
2019-01-16T04:42:23.074Z,0.00
2019-01-16T04:43:19.094Z,0.00
2019-01-16T04:44:16.574Z,0.00
2019-01-16T04:45:16.683Z,0.00
2019-01-16T04:46:16.879Z,0.00
2019-01-16T04:47:19.086Z,0.00
2019-01-16T04:48:17.307Z,0.00
2019-01-16T04:49:19.306Z,0.00
2019-01-16T04:50:17.656Z,0.00
2019-01-16T04:51:19.586Z,0.00
2019-01-16T04:52:18.045Z,0.00
2019-01-16T04:53:19.308Z,0.00
2019-01-16T04:54:20.077Z,0.00
2019-01-16T04:55:22.073Z,0.00
2019-01-16T04:56:22.588Z,0.00
2019-01-16T04:57:20.586Z,0.00
2019-01-16T04:58:19.926Z,0.00
2019-01-16T04:59:23.077Z,0.00
2019-01-16T05:00:20.036Z,0.00
2019-01-16T05:01:21.084Z,0.00
2019-01-16T05:02:23.618Z,0.00
2019-01-16T05:03:25.580Z,0.00
2019-01-16T05:04:20.060Z,0.00
2019-01-16T05:05:20.177Z,0.00
2019-01-16T05:06:22.066Z,0.00
2019-01-16T05:07:20.522Z,0.00
2019-01-16T05:08:20.736Z,0.00
2019-01-16T05:09:28.588Z,0.00
2019-01-16T05:10:21.045Z,0.00
2019-01-16T05:11:21.240Z,0.00
2019-01-16T05:12:21.442Z,0.00
2019-01-16T05:13:22.652Z,0.00
2019-01-16T05:14:23.566Z,0.00
2019-01-16T05:15:22.057Z,0.00
2019-01-16T05:16:24.080Z,0.00
2019-01-16T05:17:26.065Z,0.00
2019-01-16T05:18:39.074Z,0.00
2019-01-16T05:19:26.583Z,0.00
2019-01-16T05:20:26.568Z,0.00
2019-01-16T05:21:26.586Z,0.00
2019-01-16T05:22:27.070Z,0.00
2019-01-16T05:23:23.275Z,0.00
2019-01-16T05:24:24.497Z,0.00
2019-01-16T05:25:23.585Z,0.00
2019-01-16T05:26:25.573Z,0.00
2019-01-16T05:27:27.639Z,0.00
2019-01-16T05:28:31.571Z,0.00
2019-01-16T05:29:25.268Z,0.00
2019-01-16T05:30:26.094Z,0.00
2019-01-16T05:31:27.522Z,0.00
2019-01-16T05:32:24.878Z,0.00
2019-01-16T05:33:39.598Z,0.00
2019-01-16T05:34:25.227Z,0.00
2019-01-16T05:35:41.116Z,0.00
2019-01-16T05:36:29.020Z,0.00
2019-01-16T05:37:28.141Z,0.00
2019-01-16T05:38:33.577Z,0.00
2019-01-16T05:39:28.064Z,0.00
2019-01-16T05:40:47.261Z,0.00
2019-01-16T05:41:28.078Z,0.00
2019-01-16T05:42:28.573Z,0.00
2019-01-16T05:43:28.572Z,0.00
2019-01-16T05:44:28.608Z,0.00
2019-01-16T05:45:27.167Z,0.00
2019-01-16T05:46:29.069Z,0.00
2019-01-16T05:47:29.067Z,0.00
2019-01-16T05:48:27.640Z,0.00
2019-01-16T05:49:29.574Z,0.00
2019-01-16T05:50:29.575Z,0.00
2019-01-16T05:51:30.072Z,0.00
2019-01-16T05:52:30.070Z,0.00
2019-01-16T05:53:51.069Z,0.00
2019-01-16T05:54:32.598Z,0.00
2019-01-16T05:55:28.817Z,0.00
2019-01-16T05:56:34.576Z,0.00
2019-01-16T05:57:30.300Z,0.00
2019-01-16T05:58:33.074Z,0.00
2019-01-16T05:59:37.107Z,0.00
2019-01-16T06:00:29.647Z,0.00
2019-01-16T06:01:30.866Z,0.00
2019-01-16T06:02:31.623Z,0.00
2019-01-16T06:03:34.082Z,0.00
2019-01-16T06:04:30.287Z,0.00
2019-01-16T06:05:30.489Z,0.00
2019-01-16T06:06:31.719Z,0.00
2019-01-16T06:08:28.425Z,0.00
2019-01-16T06:09:26.442Z,0.00
2019-01-16T06:10:23.029Z,0.00
2019-01-16T06:11:24.939Z,0.00
2019-01-16T06:12:24.939Z,0.00
2019-01-16T06:13:23.406Z,0.00
2019-01-16T06:14:27.454Z,0.00
2019-01-16T06:15:23.800Z,0.00
2019-01-16T06:16:25.970Z,0.00
2019-01-16T06:17:25.937Z,0.00
2019-01-16T06:18:25.940Z,0.00
2019-01-16T06:19:26.434Z,0.00
2019-01-16T06:20:32.478Z,0.00
2019-01-16T06:21:24.802Z,0.00
2019-01-16T06:22:26.934Z,0.00
2019-01-16T06:23:53.944Z,0.00
2019-01-16T06:24:25.382Z,0.00
2019-01-16T06:25:28.471Z,0.00
2019-01-16T06:26:29.437Z,0.00
2019-01-16T06:27:29.936Z,0.00
2019-01-16T06:28:29.972Z,0.00
2019-01-16T06:29:29.936Z,0.00
2019-01-16T06:30:26.862Z,0.00
2019-01-16T06:31:26.713Z,0.00
2019-01-16T06:32:28.444Z,0.00
2019-01-16T06:33:28.950Z,0.00
2019-01-16T06:34:28.975Z,0.00
2019-01-16T06:35:28.790Z,0.00
2019-01-16T06:36:29.515Z,0.00
2019-01-16T06:37:34.473Z,0.00
2019-01-16T06:38:29.445Z,0.00
2019-01-16T06:39:29.954Z,0.00
2019-01-16T06:40:31.939Z,0.00
2019-01-16T06:41:30.887Z,0.00
2019-01-16T06:42:28.611Z,0.00
2019-01-16T06:43:29.831Z,0.00
2019-01-16T06:44:37.982Z,0.00
2019-01-16T06:45:29.168Z,0.00
2019-01-16T06:46:30.946Z,0.00
2019-01-16T06:47:29.520Z,0.00
2019-01-16T06:48:31.436Z,0.00
2019-01-16T06:49:31.441Z,0.00
2019-01-16T06:50:30.009Z,0.00
2019-01-16T06:51:31.937Z,4.00
2019-01-16T06:52:31.935Z,4.00
2019-01-16T06:53:31.939Z,4.00
2019-01-16T06:54:30.654Z,4.00
2019-01-16T06:55:38.455Z,4.00
2019-01-16T06:56:32.044Z,4.00
2019-01-16T06:57:32.984Z,4.00
2019-01-16T06:58:32.471Z,4.00
2019-01-16T06:59:33.439Z,4.00
2019-01-16T07:00:31.762Z,4.00
2019-01-16T07:01:32.968Z,8.00
2019-01-16T07:02:33.940Z,12.00
2019-01-16T07:03:33.386Z,8.00
2019-01-16T07:04:32.595Z,8.00
2019-01-16T07:05:38.806Z,12.00
2019-01-16T07:06:34.935Z,12.00
2019-01-16T07:07:34.946Z,16.00
2019-01-16T07:08:33.292Z,20.00
2019-01-16T07:09:34.978Z,24.00
2019-01-16T07:10:57.487Z,24.00
2019-01-16T07:11:35.439Z,32.00
2019-01-16T07:12:35.499Z,36.00
2019-01-16T07:13:40.943Z,36.00
2019-01-16T07:14:35.296Z,40.00
2019-01-16T07:15:36.952Z,36.00
2019-01-16T07:16:34.563Z,36.00
2019-01-16T07:17:34.667Z,48.00
2019-01-16T07:18:34.887Z,60.00
2019-01-16T07:19:36.937Z,52.00
2019-01-16T07:20:36.946Z,68.00
2019-01-16T07:21:42.937Z,64.00
2019-01-16T07:22:36.987Z,68.00
2019-01-16T07:23:36.608Z,68.00
2019-01-16T07:24:37.464Z,72.00
2019-01-16T07:25:37.387Z,84.00
2019-01-16T07:26:43.937Z,80.00
2019-01-16T07:27:38.965Z,80.00
2019-01-16T07:28:36.290Z,84.00
2019-01-16T07:29:44.443Z,88.00
2019-01-16T07:30:37.669Z,96.00
2019-01-16T07:31:38.483Z,116.00
2019-01-16T07:32:36.970Z,128.00
2019-01-16T07:33:37.183Z,132.00
2019-01-16T07:34:38.942Z,148.00
2019-01-16T07:35:39.076Z,152.00
2019-01-16T07:36:37.703Z,168.00
2019-01-16T07:37:40.445Z,184.00
2019-01-16T07:38:39.965Z,180.00
2019-01-16T07:39:39.936Z,192.00
2019-01-16T07:40:39.965Z,200.00
2019-01-16T07:41:54.452Z,220.00
2019-01-16T07:42:38.794Z,244.00
2019-01-16T07:43:46.420Z,276.00
2019-01-16T07:44:40.952Z,288.00
2019-01-16T07:45:54.937Z,288.00
2019-01-16T07:47:09.890Z,320.00
2019-01-16T07:48:03.447Z,372.00
2019-01-16T07:48:42.226Z,364.00
2019-01-16T07:49:42.435Z,376.00
2019-01-16T07:50:39.896Z,356.00
2019-01-16T07:51:40.104Z,400.00
2019-01-16T07:52:41.961Z,444.00
2019-01-16T07:53:43.939Z,448.00
2019-01-16T07:54:42.447Z,488.00
2019-01-16T07:55:49.395Z,544.00
2019-01-16T07:56:42.942Z,536.00
2019-01-16T07:57:44.954Z,552.00
2019-01-16T07:58:42.274Z,600.00
2019-01-16T07:59:41.494Z,584.00
2019-01-16T08:00:43.537Z,532.00
2019-01-16T08:01:57.880Z,512.00
2019-01-16T08:02:42.027Z,504.00
2019-01-16T08:03:43.939Z,488.00
2019-01-16T08:04:43.988Z,520.00
2019-01-16T08:05:43.442Z,580.00
2019-01-16T08:06:44.454Z,592.00
2019-01-16T08:07:44.437Z,600.00
2019-01-16T08:08:44.459Z,660.00
2019-01-16T08:09:45.006Z,704.00
2019-01-16T08:10:43.207Z,676.00
2019-01-16T08:11:44.945Z,628.00
2019-01-16T08:12:46.472Z,588.00
2019-01-16T08:13:44.423Z,580.00
2019-01-16T08:14:43.896Z,576.00
2019-01-16T08:15:45.942Z,592.00
2019-01-16T08:16:45.963Z,596.00
2019-01-16T08:17:47.937Z,604.00
2019-01-16T08:18:46.437Z,648.00
2019-01-16T08:19:44.670Z,612.00
2019-01-16T08:20:48.442Z,632.00
2019-01-16T08:21:44.893Z,692.00
2019-01-16T08:22:46.978Z,752.00
2019-01-16T08:23:46.303Z,784.00
2019-01-16T08:25:00.939Z,740.00
2019-01-16T08:25:47.467Z,764.00
2019-01-16T08:26:47.456Z,804.00
2019-01-16T08:27:49.470Z,836.00
2019-01-16T08:28:48.890Z,828.00
2019-01-16T08:29:47.946Z,808.00
2019-01-16T08:30:46.428Z,796.00
2019-01-16T08:31:47.407Z,840.00
2019-01-16T08:32:48.487Z,836.00
2019-01-16T08:33:48.436Z,844.00
2019-01-16T08:34:48.968Z,876.00
2019-01-16T08:35:47.211Z,888.00
2019-01-16T08:36:48.938Z,844.00
2019-01-16T08:37:49.481Z,812.00
2019-01-16T08:38:49.435Z,876.00
2019-01-16T08:39:51.455Z,856.00
2019-01-16T08:40:48.078Z,796.00
2019-01-16T08:41:48.189Z,844.00
2019-01-16T08:42:49.947Z,868.00
2019-01-16T08:43:52.463Z,936.00
2019-01-16T08:44:52.456Z,932.00
2019-01-16T08:45:50.444Z,956.00
2019-01-16T08:46:49.038Z,912.00
2019-01-16T08:47:50.944Z,936.00
2019-01-16T08:48:50.980Z,936.00
2019-01-16T08:49:49.448Z,920.00
2019-01-16T08:50:49.538Z,912.00
2019-01-16T08:51:49.734Z,908.00
2019-01-16T08:52:49.946Z,916.00
2019-01-16T08:53:57.401Z,940.00
2019-01-16T08:54:50.374Z,944.00
2019-01-16T08:56:07.059Z,928.00
2019-01-16T08:56:53.525Z,936.00
2019-01-16T08:57:52.485Z,928.00
2019-01-16T08:58:52.955Z,884.00
2019-01-16T08:59:52.322Z,904.00
2019-01-16T09:00:51.439Z,880.00
2019-01-16T09:01:53.450Z,852.00
2019-01-16T09:02:55.443Z,868.00
2019-01-16T09:03:53.459Z,904.00
2019-01-16T09:05:06.961Z,892.00
2019-01-16T09:05:53.943Z,928.00
2019-01-16T09:06:55.966Z,952.00
2019-01-16T09:07:52.440Z,972.00
2019-01-16T09:08:53.415Z,976.00
2019-01-16T09:09:52.860Z,1044.00
2019-01-16T09:10:55.489Z,1032.00
2019-01-16T09:11:54.936Z,1108.00
2019-01-16T09:12:53.338Z,1176.00
2019-01-16T09:13:54.428Z,1212.00
2019-01-16T09:14:54.274Z,1356.00
2019-01-16T09:15:53.875Z,1380.00
2019-01-16T09:16:57.933Z,1460.00
2019-01-16T09:17:55.270Z,1364.00
2019-01-16T09:18:55.506Z,1420.00
2019-01-16T09:19:54.608Z,1468.00
2019-01-16T09:20:57.462Z,1492.00
2019-01-16T09:21:55.938Z,1532.00
2019-01-16T09:22:57.013Z,1568.00
2019-01-16T09:23:56.406Z,1612.00
2019-01-16T09:24:56.978Z,1612.00
2019-01-16T09:26:03.417Z,1604.00
2019-01-16T09:26:57.161Z,1740.00
2019-01-16T09:28:04.391Z,1796.00
2019-01-16T09:28:56.479Z,1916.00
2019-01-16T09:29:58.989Z,2084.00
2019-01-16T09:30:58.441Z,2272.00
2019-01-16T09:31:56.664Z,2508.00
2019-01-16T09:32:59.398Z,2480.00
2019-01-16T09:34:03.967Z,2588.00
2019-01-16T09:34:58.948Z,2696.00
2019-01-16T09:35:57.930Z,3248.00
2019-01-16T09:37:01.881Z,3340.00
2019-01-16T09:37:59.150Z,3096.00
2019-01-16T09:38:59.439Z,2944.00
2019-01-16T09:39:59.941Z,2780.00
2019-01-16T09:40:59.938Z,2552.00
2019-01-16T09:42:13.944Z,2516.00
2019-01-16T09:42:58.670Z,2356.00
2019-01-16T09:44:14.445Z,2340.00
2019-01-16T09:45:02.441Z,2244.00
2019-01-16T09:46:00.941Z,2144.00
2019-01-16T09:46:59.183Z,2208.00
2019-01-16T09:48:00.945Z,2168.00
2019-01-16T09:49:00.942Z,2260.00
2019-01-16T09:50:01.443Z,2444.00
2019-01-16T09:51:11.778Z,2504.00
2019-01-16T09:52:03.446Z,2400.00
2019-01-16T09:53:00.935Z,2256.00
2019-01-16T09:54:22.178Z,2372.00
2019-01-16T09:55:01.400Z,2292.00
2019-01-16T09:56:01.441Z,2104.00
2019-01-16T09:57:04.438Z,2040.00
2019-01-16T09:58:02.471Z,2104.00
2019-01-16T09:59:02.107Z,1980.00
2019-01-16T10:00:02.978Z,1876.00
2019-01-16T10:01:02.310Z,1848.00
2019-01-16T10:02:17.440Z,1980.00
2019-01-16T10:03:02.905Z,2016.00
2019-01-16T10:04:04.450Z,1944.00
2019-01-16T10:05:03.938Z,2128.00
2019-01-16T10:06:02.144Z,2096.00
2019-01-16T10:07:02.343Z,1976.00
2019-01-16T10:08:05.425Z,1916.00
2019-01-16T10:09:25.533Z,2040.00
2019-01-16T10:10:09.606Z,2212.00
2019-01-16T10:11:03.133Z,2292.00
2019-01-16T10:12:03.212Z,2212.00
2019-01-16T10:13:04.947Z,2196.00
2019-01-16T10:14:03.526Z,2216.00
2019-01-16T10:15:07.590Z,2144.00
2019-01-16T10:16:05.447Z,2040.00
2019-01-16T10:17:09.314Z,1872.00
2019-01-16T10:18:04.787Z,1712.00
2019-01-16T10:19:05.967Z,1764.00
2019-01-16T10:20:06.478Z,1816.00
2019-01-16T10:21:13.425Z,1760.00
2019-01-16T10:22:20.941Z,1644.00
2019-01-16T10:23:05.133Z,1676.00
2019-01-16T10:24:12.943Z,1684.00
2019-01-16T10:25:20.444Z,1752.00
2019-01-16T10:26:07.439Z,1768.00
2019-01-16T10:27:08.463Z,1948.00
2019-01-16T10:28:09.479Z,2088.00
2019-01-16T10:29:13.950Z,2032.00
2019-01-16T10:30:06.318Z,2096.00
2019-01-16T10:31:13.965Z,1756.00
2019-01-16T10:32:06.551Z,1676.00
2019-01-16T10:33:10.488Z,1740.00
2019-01-16T10:34:08.444Z,1908.00
2019-01-16T10:35:09.668Z,2048.00
2019-01-16T10:36:08.982Z,2148.00
2019-01-16T10:37:08.948Z,2272.00
2019-01-16T10:38:11.443Z,2528.00
2019-01-16T10:39:07.780Z,2636.00
2019-01-16T10:40:09.943Z,2672.00
2019-01-16T10:41:14.947Z,2704.00
2019-01-16T10:42:08.272Z,3044.00
2019-01-16T10:43:10.894Z,3048.00
2019-01-16T10:44:10.440Z,2916.00
2019-01-16T10:45:08.763Z,2792.00
2019-01-16T10:46:08.979Z,2736.00
2019-01-16T10:47:10.993Z,2828.00
2019-01-16T10:48:11.625Z,2936.00
2019-01-16T10:49:15.554Z,2920.00
2019-01-16T10:50:11.444Z,2884.00
2019-01-16T10:51:11.449Z,2680.00
2019-01-16T10:52:11.989Z,2624.00
2019-01-16T10:53:12.001Z,2680.00
2019-01-16T10:54:11.946Z,2708.00
2019-01-16T10:55:11.406Z,2772.00
2019-01-16T10:56:10.609Z,2760.00
2019-01-16T10:57:12.490Z,2908.00
2019-01-16T10:58:10.979Z,2908.00
2019-01-16T10:59:12.084Z,2588.00
2019-01-16T11:00:12.939Z,2212.00
2019-01-16T11:01:11.391Z,1916.00
2019-01-16T11:02:16.393Z,1828.00
2019-01-16T11:03:11.726Z,1752.00
2019-01-16T11:04:13.499Z,1800.00
2019-01-16T11:05:15.943Z,1744.00
2019-01-16T11:06:15.982Z,1716.00
2019-01-16T11:07:19.952Z,1768.00
2019-01-16T11:08:14.491Z,1736.00
2019-01-16T11:09:14.464Z,1680.00
2019-01-16T11:10:16.473Z,1744.00
2019-01-16T11:11:16.160Z,1936.00
2019-01-16T11:12:14.974Z,2196.00
2019-01-16T11:13:14.942Z,2148.00
2019-01-16T11:14:21.465Z,2196.00
2019-01-16T11:15:14.718Z,2492.00
2019-01-16T11:16:13.813Z,2600.00
2019-01-16T11:17:14.013Z,2532.00
2019-01-16T11:18:17.983Z,2368.00
2019-01-16T11:19:17.975Z,2360.00
2019-01-16T11:20:16.451Z,2708.00
2019-01-16T11:21:14.781Z,2828.00
2019-01-16T11:22:16.981Z,2692.00
2019-01-16T11:23:17.968Z,2804.00
2019-01-16T11:24:18.960Z,2908.00
2019-01-16T11:25:17.476Z,3020.00
2019-01-16T11:26:22.447Z,2956.00
2019-01-16T11:27:17.455Z,2588.00
2019-01-16T11:28:38.980Z,2484.00
2019-01-16T11:29:17.972Z,2352.00
2019-01-16T11:30:21.973Z,2300.00
2019-01-16T11:31:18.450Z,2188.00
2019-01-16T11:32:18.439Z,2364.00
2019-01-16T11:33:17.924Z,2368.00
2019-01-16T11:34:18.947Z,2292.00
2019-01-16T11:35:18.947Z,2360.00
2019-01-16T11:36:18.943Z,2412.00
2019-01-16T11:37:18.943Z,2416.00
2019-01-16T11:38:18.743Z,2352.00
2019-01-16T11:39:23.756Z,2272.00
2019-01-16T11:40:18.862Z,2228.00
2019-01-16T11:41:17.952Z,2208.00
2019-01-16T11:42:19.939Z,2200.00
2019-01-16T11:43:18.301Z,2288.00
2019-01-16T11:44:19.944Z,2236.00
2019-01-16T11:45:19.528Z,2196.00
2019-01-16T11:46:20.440Z,2276.00
2019-01-16T11:47:19.906Z,2244.00
2019-01-16T11:48:19.020Z,2492.00
2019-01-16T11:49:20.939Z,2588.00
2019-01-16T11:50:19.396Z,2728.00
2019-01-16T11:51:20.651Z,2744.00
2019-01-16T11:52:23.481Z,2636.00
2019-01-16T11:53:21.477Z,2520.00
2019-01-16T11:54:22.959Z,2568.00
2019-01-16T11:55:21.945Z,2672.00
2019-01-16T11:56:20.562Z,2740.00
2019-01-16T11:57:23.472Z,2776.00
2019-01-16T11:58:24.446Z,2816.00
2019-01-16T11:59:21.033Z,2776.00
2019-01-16T12:00:22.952Z,2880.00
2019-01-16T12:01:22.989Z,2904.00
2019-01-16T12:02:21.599Z,2848.00
2019-01-16T12:03:29.490Z,2908.00
2019-01-16T12:04:23.441Z,2888.00
2019-01-16T12:05:23.947Z,2924.00
2019-01-16T12:06:23.944Z,2920.00
2019-01-16T12:07:22.268Z,2952.00
2019-01-16T12:08:23.509Z,2932.00
2019-01-16T12:09:22.601Z,2804.00
2019-01-16T12:10:26.489Z,2704.00
2019-01-16T12:11:22.941Z,2652.00
2019-01-16T12:12:24.948Z,2600.00
2019-01-16T12:13:23.282Z,2444.00
2019-01-16T12:14:23.503Z,2400.00
2019-01-16T12:15:23.754Z,2512.00
2019-01-16T12:16:25.472Z,2684.00
2019-01-16T12:17:24.044Z,2632.00
2019-01-16T12:18:25.944Z,2624.00
2019-01-16T12:19:25.988Z,2696.00
2019-01-16T12:20:26.994Z,2740.00
2019-01-16T12:21:26.788Z,2784.00
2019-01-16T12:22:28.480Z,2900.00
2019-01-16T12:23:25.048Z,2996.00
2019-01-16T12:24:40.944Z,3288.00
2019-01-16T12:25:26.401Z,3448.00
2019-01-16T12:26:27.444Z,3728.00
2019-01-16T12:27:26.661Z,3976.00
2019-01-16T12:28:29.458Z,4088.00
2019-01-16T12:29:27.454Z,4300.00
2019-01-16T12:30:27.968Z,4316.00
2019-01-16T12:31:26.193Z,4076.00
2019-01-16T12:32:26.420Z,3840.00
2019-01-16T12:33:26.648Z,3676.00
2019-01-16T12:34:28.440Z,3732.00
2019-01-16T12:35:28.029Z,3708.00
2019-01-16T12:36:27.235Z,3416.00
2019-01-16T12:37:27.438Z,3676.00
2019-01-16T12:38:31.436Z,4256.00
2019-01-16T12:39:35.443Z,4112.00
2019-01-16T12:40:27.892Z,4452.00
2019-01-16T12:41:44.220Z,4548.00
2019-01-16T12:42:29.995Z,4204.00
2019-01-16T12:43:30.448Z,3844.00
2019-01-16T12:44:28.666Z,3312.00
2019-01-16T12:45:30.447Z,3140.00
2019-01-16T12:46:30.990Z,2908.00
2019-01-16T12:47:29.194Z,2812.00
2019-01-16T12:48:32.941Z,2692.00
2019-01-16T12:49:31.471Z,2640.00
2019-01-16T12:50:31.422Z,2660.00
2019-01-16T12:51:33.666Z,2568.00